createdAt,value
2023-04-02T00:01:49.468Z,98500.84
2023-04-02T00:12:20.265Z,98500.03
2023-04-02T00:22:44.780Z,98510.97
2023-04-02T00:33:05.993Z,98521.09
2023-04-02T00:43:33.214Z,98513.22
2023-04-02T00:53:57.079Z,98529.91
2023-04-02T01:05:02.869Z,98531.94
2023-04-02T01:16:05.506Z,98530.31
2023-04-02T01:26:47.993Z,98525.47
2023-04-02T01:37:32.436Z,98533.25
2023-04-02T01:47:53.924Z,98538.41
2023-04-02T01:58:25.455Z,98531.94
2023-04-02T02:08:59.712Z,98536.28
2023-04-02T02:19:42.528Z,98536.47
2023-04-02T02:30:19.494Z,98542.56
2023-04-02T02:40:46.176Z,98531.69
2023-04-02T02:51:47.046Z,98540.03
2023-04-02T03:02:15.417Z,98542.56
2023-04-02T03:12:58.532Z,98553.38
2023-04-02T03:23:42.651Z,98556.81
2023-04-02T03:34:32.901Z,98563.66
2023-04-02T03:45:19.952Z,98563.66
2023-04-02T03:55:42.974Z,98576.22
2023-04-02T04:06:13.664Z,98584.50
2023-04-02T04:17:15.788Z,98586.75
2023-04-02T04:27:52.867Z,98607.06
2023-04-02T04:38:27.729Z,98610.41
2023-04-02T04:49:03.312Z,98612.25
2023-04-02T04:59:36.431Z,98626.19
2023-04-02T05:10:12.729Z,98624.38
2023-04-02T05:20:52.172Z,98627.72
2023-04-02T05:31:23.079Z,98628.84
2023-04-02T05:41:47.505Z,98634.31
2023-04-02T05:52:27.612Z,98643.41
2023-04-02T06:03:00.032Z,98647.44
2023-04-02T06:13:22.100Z,98660.59
2023-04-02T06:24:03.568Z,98671.22
2023-04-02T06:34:30.726Z,98676.19
2023-04-02T06:45:01.633Z,98679.91
2023-04-02T06:56:08.131Z,98677.63
2023-04-02T07:06:30.310Z,98675.50
2023-04-02T07:16:55.244Z,98705.88
2023-04-02T07:27:16.926Z,98706.16
2023-04-02T07:37:38.817Z,98704.31
2023-04-02T07:48:09.949Z,98706.28
2023-04-02T07:58:33.195Z,98706.75
2023-04-02T08:08:55.123Z,98716.69
2023-04-02T08:19:16.697Z,98717.69
2023-04-02T08:29:38.400Z,98723.25
2023-04-02T08:39:59.463Z,98721.84
2023-04-02T08:50:40.335Z,98737.13
2023-04-02T09:01:04.522Z,98748.19
2023-04-02T09:11:56.996Z,98742.38
2023-04-02T09:22:27.848Z,98754.34
2023-04-02T09:32:52.675Z,98751.50
2023-04-02T09:43:31.868Z,98753.72
2023-04-02T09:54:14.103Z,98778.66
2023-04-02T10:04:48.087Z,98780.19
2023-04-02T10:15:20.389Z,98777.03
2023-04-02T10:26:13.039Z,98791.78
2023-04-02T10:36:52.598Z,98799.88
2023-04-02T10:47:27.265Z,98805.66
2023-04-02T10:57:48.938Z,98811.22
2023-04-02T11:08:20.706Z,98810.44
2023-04-02T11:18:44.818Z,98812.34
2023-04-02T11:29:27.524Z,98815.94
2023-04-02T11:39:59.402Z,98820.38
2023-04-02T11:50:35.244Z,98822.22
2023-04-02T12:01:07.894Z,98818.38
2023-04-02T12:11:39.197Z,98827.47
2023-04-02T12:22:01.143Z,98838.91
2023-04-02T12:32:30.662Z,98835.28
2023-04-02T12:42:51.846Z,98838.53
2023-04-02T12:53:35.902Z,98840.03
2023-04-02T13:04:12.458Z,98841.75
2023-04-02T13:14:24.472Z,98839.41
2023-04-02T13:24:45.923Z,98844.84
2023-04-02T13:35:08.097Z,98840.56
2023-04-02T13:45:35.046Z,98841.34
2023-04-02T13:55:56.669Z,98836.84
2023-04-02T14:07:01.685Z,98846.66
2023-04-02T14:18:00.578Z,98856.06
2023-04-02T14:28:43.843Z,98859.88
2023-04-02T14:39:15.449Z,98856.63
2023-04-02T14:49:42.860Z,98859.63
2023-04-02T15:00:09.950Z,98868.91
2023-04-02T15:10:38.981Z,98865.13
2023-04-02T15:21:29.533Z,98869.56
2023-04-02T15:31:54.917Z,98869.56
2023-04-02T15:42:25.598Z,98879.13
2023-04-02T15:53:39.784Z,98885.38
2023-04-02T16:04:13.705Z,98881.28
2023-04-02T16:14:28.461Z,98894.94
2023-04-02T16:25:06.216Z,98894.41
2023-04-02T16:36:14.403Z,98899.44
2023-04-02T16:47:08.992Z,98901.16
2023-04-02T16:57:48.179Z,98906.31
2023-04-02T17:08:27.264Z,98911.38
2023-04-02T17:18:53.144Z,98914.81
2023-04-02T17:29:22.320Z,98918.44
2023-04-02T17:40:13.310Z,98931.59
2023-04-02T17:50:58.980Z,98933.94
2023-04-02T18:01:39.803Z,98949.34
2023-04-02T18:12:42.424Z,98953.63
2023-04-02T18:23:57.053Z,98965.16
2023-04-02T18:34:49.899Z,98956.78
2023-04-02T18:45:35.506Z,98967.44
2023-04-02T18:56:05.374Z,98970.28
2023-04-02T19:06:42.029Z,98966.13
2023-04-02T19:17:27.198Z,98969.06
2023-04-02T19:28:12.628Z,98971.78
2023-04-02T19:39:05.983Z,98969.66
2023-04-02T19:49:33.522Z,98975.75
2023-04-02T19:59:55.021Z,98980.19
2023-04-02T20:10:16.668Z,98971.75
2023-04-02T20:20:39.392Z,98985.03
2023-04-02T20:31:17.727Z,98981.09
2023-04-02T20:41:39.199Z,98978.72
2023-04-02T20:52:00.824Z,98983.97
2023-04-02T21:02:21.867Z,98991.66
2023-04-02T21:12:42.922Z,98978.97
2023-04-02T21:23:03.942Z,98984.16
2023-04-02T21:33:25.565Z,98973.59
2023-04-02T21:43:48.384Z,98981.31
2023-04-02T21:54:10.179Z,98970.56
2023-04-02T22:04:33.329Z,98967.34
2023-04-02T22:14:54.626Z,98974.16
2023-04-02T22:25:15.798Z,98975.94
2023-04-02T22:35:37.959Z,98973.63
2023-04-02T22:45:59.548Z,98967.13
2023-04-02T22:56:26.720Z,98981.38
2023-04-02T23:06:48.268Z,98973.97
2023-04-02T23:17:09.327Z,98965.44
2023-04-02T23:27:30.513Z,98959.50
2023-04-02T23:37:51.774Z,98952.84
2023-04-02T23:48:12.884Z,98945.44
2023-04-02T23:58:34.615Z,98946.50
